Time;durP1;ratioP1;P1;durP2;ratioP2;P2;SDS_P1;SDS_P2;PMS_P1;PMS_P2;Temp;Humidity;BMP_temperature;BMP_pressure;BME280_temperature;BME280_humidity;BME280_pressure;Samples;Min_cycle;Max_cycle;Signal;HPM_P1;HPM_P2
2022/07/08 00:01:44;;;;;;;2.80;1.72;;;;;;;18.61;68.13;99680.11;1805236;79;21015;-76
2022/07/08 00:04:11;;;;;;;0.68;0.60;;;;;;;18.61;68.23;99677.45;1805544;79;21016;-76
2022/07/08 00:06:38;;;;;;;0.68;0.68;;;;;;;18.63;68.20;99680.89;1805051;79;21052;-76
2022/07/08 00:09:05;;;;;;;1.22;0.62;;;;;;;18.64;68.28;99680.77;1805170;79;21522;-76
2022/07/08 00:11:32;;;;;;;0.90;0.80;;;;;;;18.65;68.41;99681.64;1805206;79;21561;-76
2022/07/08 00:13:58;;;;;;;2.22;0.90;;;;;;;18.66;68.54;99680.66;1805481;78;21179;-76
2022/07/08 00:16:25;;;;;;;0.93;0.60;;;;;;;18.67;68.48;99691.72;1805205;79;20991;-76
2022/07/08 00:18:52;;;;;;;1.10;0.80;;;;;;;18.68;68.75;99702.77;1805475;78;21103;-76
2022/07/08 00:21:18;;;;;;;1.32;1.00;;;;;;;18.67;68.97;99709.04;1738767;82;21017;-76
2022/07/08 00:23:44;;;;;;;0.78;0.75;;;;;;;18.65;69.15;99714.95;1769200;81;20977;-77
2022/07/08 00:26:11;;;;;;;0.80;0.70;;;;;;;18.66;69.61;99714.86;1769606;81;21102;-76
2022/07/08 00:28:38;;;;;;;4.03;0.70;;;;;;;18.67;70.09;99715.70;1765390;81;21059;-77
2022/07/08 00:31:06;;;;;;;4.25;0.78;;;;;;;18.67;70.51;99717.03;1766844;80;21057;-77
2022/07/08 00:33:34;;;;;;;0.60;0.60;;;;;;;18.67;70.59;99717.88;1847005;77;21114;-76
2022/07/08 00:36:00;;;;;;;3.20;0.85;;;;;;;18.66;70.64;99719.31;1847097;77;21086;-76
2022/07/08 00:38:27;;;;;;;3.17;0.70;;;;;;;18.65;70.67;99712.28;1847013;77;21184;-76
2022/07/08 00:40:53;;;;;;;1.17;0.88;;;;;;;18.65;71.31;99713.63;1847024;77;21007;-76
2022/07/08 00:43:27;;;;;;;0.70;0.70;;;;;;;18.65;71.95;99710.95;1847351;77;21557;-76
2022/07/08 00:45:53;;;;;;;1.57;0.82;;;;;;;18.66;71.94;99717.98;1811929;77;21522;-77
2022/07/08 00:48:20;;;;;;;3.00;0.90;;;;;;;18.65;71.61;99725.61;1847396;77;21039;-76
2022/07/08 00:50:47;;;;;;;0.93;0.80;;;;;;;18.63;71.53;99727.05;1846995;77;21096;-76
2022/07/08 00:53:13;;;;;;;1.55;0.80;;;;;;;18.63;71.51;99730.20;1846928;77;21541;-76
2022/07/08 00:55:39;;;;;;;3.05;0.90;;;;;;;18.62;71.68;99732.47;1847442;77;21007;-76
2022/07/08 00:58:06;;;;;;;2.52;1.00;;;;;;;18.60;71.43;99735.23;1847066;77;21385;-76
2022/07/08 01:00:32;;;;;;;1.37;0.90;;;;;;;18.62;71.48;99735.13;1847028;77;21030;-77
2022/07/08 01:02:59;;;;;;;1.10;0.90;;;;;;;18.59;71.54;99722.84;1846752;77;21116;-77
2022/07/08 01:05:26;;;;;;;1.15;0.80;;;;;;;18.58;72.20;99725.16;1846950;77;21038;-76
2022/07/08 01:07:53;;;;;;;1.30;0.80;;;;;;;18.58;72.58;99721.16;1846989;77;21069;-76
2022/07/08 01:10:19;;;;;;;1.15;1.00;;;;;;;18.58;72.82;99715.83;1847139;77;21011;-77
2022/07/08 01:12:46;;;;;;;1.07;0.72;;;;;;;18.56;72.58;99717.25;1847064;77;21027;-77
2022/07/08 01:15:13;;;;;;;0.55;0.55;;;;;;;18.56;72.52;99718.59;1847052;77;21136;-76
2022/07/08 01:17:43;;;;;;;0.93;0.70;;;;;;;18.55;72.05;99718.20;1846778;77;21070;-76
2022/07/08 01:20:12;;;;;;;2.00;0.82;;;;;;;18.54;71.64;99719.63;1846922;77;21094;-77
2022/07/08 01:22:39;;;;;;;0.70;0.70;;;;;;;18.54;71.12;99720.50;1847146;77;21078;-77
2022/07/08 01:25:06;;;;;;;1.37;0.70;;;;;;;18.55;71.35;99712.87;1846949;77;21047;-77
2022/07/08 01:27:33;;;;;;;0.70;0.70;;;;;;;18.56;71.69;99713.26;1847091;77;21584;-77
2022/07/08 01:30:00;;;;;;;2.72;1.30;;;;;;;18.55;72.05;99703.55;1846759;77;21311;-77
2022/07/08 01:32:36;;;;;;;1.52;0.85;;;;;;;18.57;72.04;99714.95;1846746;77;21054;-77
2022/07/08 01:35:04;;;;;;;0.98;0.90;;;;;;;18.59;72.39;99719.34;1847039;77;21042;-77
2022/07/08 01:37:31;;;;;;;0.80;0.70;;;;;;;18.59;72.21;99727.33;1847335;77;21518;-77
2022/07/08 01:39:58;;;;;;;1.95;1.00;;;;;;;18.56;72.08;99725.25;1846930;77;21778;-77
2022/07/08 01:42:25;;;;;;;0.70;0.70;;;;;;;18.58;72.25;99729.16;1846908;77;21432;-76
2022/07/08 01:44:52;;;;;;;1.70;0.80;;;;;;;18.56;72.21;99725.25;1847293;77;20976;-76
2022/07/08 01:47:19;;;;;;;1.00;0.80;;;;;;;18.55;72.35;99724.86;1847042;77;21109;-77
2022/07/08 01:49:46;;;;;;;2.65;1.00;;;;;;;18.54;72.11;99727.62;1847205;77;21007;-77
2022/07/08 01:52:13;;;;;;;2.00;1.00;;;;;;;18.53;72.21;99726.77;1846951;77;21039;-76
2022/07/08 01:54:39;;;;;;;1.12;0.90;;;;;;;18.52;72.32;99733.05;1846785;77;20995;-75
2022/07/08 01:57:15;;;;;;;0.70;0.70;;;;;;;18.51;72.35;99723.84;1846804;77;21035;-76
2022/07/08 01:59:43;;;;;;;0.80;0.80;;;;;;;18.50;72.66;99728.30;1846993;77;21004;-77
2022/07/08 02:02:11;;;;;;;0.80;0.80;;;;;;;18.50;72.33;99725.63;1830789;77;21044;-77
2022/07/08 02:04:39;;;;;;;2.67;1.75;;;;;;;18.47;71.98;99725.83;1826876;78;21145;-77
2022/07/08 02:07:06;;;;;;;0.80;0.80;;;;;;;18.46;71.88;99720.14;1736625;80;21528;-76
2022/07/08 02:09:33;;;;;;;1.22;0.90;;;;;;;18.44;71.79;99722.51;1798673;79;21015;-76
2022/07/08 02:12:18;;;;;;;1.47;0.85;;;;;;;18.45;71.81;99725.08;1798339;79;21044;-77
2022/07/08 02:15:02;;;;;;;1.65;1.05;;;;;;;18.43;71.77;99722.99;1798347;79;22061;-77
2022/07/08 02:17:35;;;;;;;1.67;0.72;;;;;;;18.43;71.79;99712.34;1798559;79;21127;-77
2022/07/08 02:20:08;;;;;;;1.00;1.00;;;;;;;18.44;71.75;99698.08;1797770;79;21601;-77
2022/07/08 02:22:35;;;;;;;2.95;0.80;;;;;;;18.45;71.62;99691.77;1798702;79;21083;-77
2022/07/08 02:25:02;;;;;;;1.22;0.80;;;;;;;18.42;71.49;99699.95;1798391;79;22081;-76
2022/07/08 02:27:29;;;;;;;1.20;1.00;;;;;;;18.42;71.52;99722.60;1798398;79;21098;-77
2022/07/08 02:29:55;;;;;;;1.05;1.00;;;;;;;18.41;71.64;99732.90;1798444;79;21497;-77
2022/07/08 02:32:22;;;;;;;0.80;0.80;;;;;;;18.39;71.48;99730.78;1800422;78;21118;-77
2022/07/08 02:34:48;;;;;;;0.70;0.70;;;;;;;18.36;71.51;99724.34;1780052;77;21177;-77
2022/07/08 02:37:15;;;;;;;0.80;0.80;;;;;;;18.31;72.08;99723.78;1776419;80;21471;-76
2022/07/08 02:39:42;;;;;;;1.27;1.00;;;;;;;18.26;72.59;99719.23;1777028;80;21106;-76
2022/07/08 02:42:09;;;;;;;3.80;1.10;;;;;;;18.17;73.00;99730.84;1776640;80;21136;-76
2022/07/08 02:44:37;;;;;;;1.47;1.10;;;;;;;18.11;73.36;99727.22;1776576;80;21068;-76
2022/07/08 02:47:08;;;;;;;1.52;1.12;;;;;;;18.07;73.52;99727.04;1776656;80;21103;-76
2022/07/08 02:49:36;;;;;;;1.10;1.00;;;;;;;18.01;74.00;99719.42;1775911;80;21086;-77
2022/07/08 02:52:05;;;;;;;2.08;1.20;;;;;;;17.97;74.11;99715.22;1775638;80;21613;-77
2022/07/08 02:54:32;;;;;;;3.85;1.35;;;;;;;17.96;74.17;99719.70;1776552;80;21095;-76
2022/07/08 02:56:58;;;;;;;2.55;1.10;;;;;;;17.95;74.33;99725.13;1776946;80;21091;-77
2022/07/08 02:59:25;;;;;;;1.62;1.07;;;;;;;17.95;74.44;99719.31;1776558;80;21220;-76
2022/07/08 03:01:52;;;;;;;2.33;1.22;;;;;;;17.96;74.31;99722.36;1784679;80;21182;-77
2022/07/08 03:04:19;;;;;;;1.20;1.10;;;;;;;17.97;74.21;99726.75;1790259;79;21610;-76
2022/07/08 03:06:45;;;;;;;1.75;1.25;;;;;;;17.98;73.92;99724.94;1789988;80;22704;-77
2022/07/08 03:09:12;;;;;;;1.25;1.00;;;;;;;17.98;73.61;99726.27;1790371;80;21060;-76
2022/07/08 03:11:39;;;;;;;1.42;1.32;;;;;;;17.96;73.55;99724.18;1790200;79;21114;-76
2022/07/08 03:14:05;;;;;;;1.22;1.10;;;;;;;17.93;73.42;99733.69;1790089;80;21075;-76
2022/07/08 03:16:33;;;;;;;6.08;1.20;;;;;;;17.91;73.33;99736.92;1790279;80;21106;-76
2022/07/08 03:19:00;;;;;;;3.10;1.47;;;;;;;17.91;73.33;99743.58;1789920;80;21148;-77
2022/07/08 03:21:26;;;;;;;1.45;1.00;;;;;;;17.92;73.40;99741.27;1790282;80;21095;-76
2022/07/08 03:23:53;;;;;;;2.05;1.20;;;;;;;17.93;73.60;99743.00;1789955;80;21578;-76
2022/07/08 03:26:19;;;;;;;0.93;0.93;;;;;;;17.93;73.45;99740.34;1790345;80;20965;-77
2022/07/08 03:28:46;;;;;;;2.22;1.05;;;;;;;17.91;73.42;99744.91;1790132;79;21001;-77
2022/07/08 03:31:13;;;;;;;1.77;0.90;;;;;;;17.90;73.20;99744.03;1790262;80;21137;-77
2022/07/08 03:33:40;;;;;;;1.25;0.78;;;;;;;17.92;73.08;99747.93;1790254;79;21036;-77
2022/07/08 03:36:07;;;;;;;1.95;1.07;;;;;;;17.94;72.79;99750.05;1790064;80;21032;-76
2022/07/08 03:38:35;;;;;;;2.25;1.00;;;;;;;17.96;72.54;99749.47;1790405;79;21064;-77
2022/07/08 03:41:20;;;;;;;2.27;0.82;;;;;;;17.96;72.50;99745.48;1790063;80;21582;-77
2022/07/08 03:43:49;;;;;;;1.25;1.05;;;;;;;17.97;72.38;99750.71;1790055;79;21307;-77
2022/07/08 03:46:15;;;;;;;2.62;1.10;;;;;;;17.99;72.36;99739.97;1790126;79;21075;-76
2022/07/08 03:48:42;;;;;;;2.17;1.00;;;;;;;18.00;72.23;99744.32;1790060;80;21043;-76
2022/07/08 03:51:09;;;;;;;2.65;0.90;;;;;;;18.01;72.20;99738.91;1790161;80;21075;-76
2022/07/08 03:53:35;;;;;;;0.90;0.90;;;;;;;18.04;72.19;99735.22;1790110;79;21048;-76
2022/07/08 03:56:05;;;;;;;1.70;1.20;;;;;;;18.08;71.95;99739.38;1790445;80;22197;-76
2022/07/08 03:58:36;;;;;;;1.35;0.80;;;;;;;18.08;72.02;99743.38;1790202;79;21008;-76
2022/07/08 04:01:03;;;;;;;2.27;0.90;;;;;;;18.09;72.09;99743.77;1756326;79;21024;-76
2022/07/08 04:03:29;;;;;;;1.82;1.10;;;;;;;18.14;72.05;99743.46;1808539;79;21043;-75
2022/07/08 04:05:56;;;;;;;1.47;1.00;;;;;;;18.16;71.87;99744.25;1808509;79;21524;-77
2022/07/08 04:08:22;;;;;;;1.55;1.00;;;;;;;18.17;72.07;99744.15;1808576;79;21101;-76
2022/07/08 04:10:49;;;;;;;2.05;1.17;;;;;;;18.19;71.99;99742.24;1808467;79;21060;-76
2022/07/08 04:13:16;;;;;;;2.65;1.00;;;;;;;18.24;72.19;99743.75;1807296;77;21040;-77
2022/07/08 04:15:43;;;;;;;1.40;1.30;;;;;;;18.27;72.38;99744.89;1805456;78;21035;-76
2022/07/08 04:18:10;;;;;;;2.12;1.10;;;;;;;18.29;72.05;99741.64;1805246;79;21075;-76
2022/07/08 04:20:37;;;;;;;1.27;1.00;;;;;;;18.31;72.07;99739.28;1805386;78;21770;-76
2022/07/08 04:23:03;;;;;;;1.45;1.00;;;;;;;18.34;72.26;99736.43;1805325;79;22257;-76
2022/07/08 04:25:32;;;;;;;1.22;1.05;;;;;;;18.37;72.10;99736.69;1805356;77;21534;-77
2022/07/08 04:27:58;;;;;;;1.47;0.95;;;;;;;18.42;72.02;99737.25;1805347;79;21161;-76
2022/07/08 04:30:25;;;;;;;2.30;1.10;;;;;;;18.47;72.14;99743.14;1805396;79;21661;-77
2022/07/08 04:32:52;;;;;;;1.10;1.00;;;;;;;18.50;72.09;99752.28;1805181;78;22612;-76
2022/07/08 04:35:19;;;;;;;2.50;1.37;;;;;;;18.51;71.96;99744.67;1805106;78;21068;-76
2022/07/08 04:37:46;;;;;;;3.33;1.05;;;;;;;18.54;71.85;99751.15;1805006;78;21182;-76
2022/07/08 04:40:15;;;;;;;1.20;1.10;;;;;;;18.54;71.64;99752.48;1804991;79;21052;-77
2022/07/08 04:42:42;;;;;;;3.12;1.22;;;;;;;18.57;71.59;99754.92;1805285;79;21674;-76
2022/07/08 04:45:10;;;;;;;1.50;1.10;;;;;;;18.60;71.53;99748.55;1804986;78;21963;-76
2022/07/08 04:47:37;;;;;;;1.22;1.05;;;;;;;18.64;71.33;99762.53;1805077;78;21091;-76
2022/07/08 04:50:05;;;;;;;1.35;1.25;;;;;;;18.68;71.56;99762.73;1805926;78;21121;-76
2022/07/08 04:52:32;;;;;;;1.77;1.02;;;;;;;18.71;71.18;99763.39;1805151;78;21119;-77
2022/07/08 04:54:59;;;;;;;3.98;1.40;;;;;;;18.72;71.14;99752.23;1805365;79;21122;-76
2022/07/08 04:57:25;;;;;;;2.65;1.30;;;;;;;18.76;70.97;99751.06;1805147;78;21798;-76
2022/07/08 04:59:52;;;;;;;1.75;1.00;;;;;;;18.77;71.06;99753.28;1805169;79;21676;-76
2022/07/08 05:02:19;;;;;;;1.65;1.35;;;;;;;18.80;70.78;99752.59;1808599;78;20964;-77
2022/07/08 05:04:45;;;;;;;1.30;1.20;;;;;;;18.82;70.51;99752.02;1758894;81;21127;-76
2022/07/08 05:07:12;;;;;;;2.05;1.30;;;;;;;18.81;70.41;99752.98;1759319;81;21072;-76
2022/07/08 05:09:39;;;;;;;1.77;1.02;;;;;;;18.82;70.33;99757.34;1759093;81;21533;-76
2022/07/08 05:12:07;;;;;;;3.50;1.30;;;;;;;18.83;70.46;99759.10;1758780;81;21108;-76
2022/07/08 05:14:34;;;;;;;1.20;1.10;;;;;;;18.85;70.36;99761.19;1758994;81;21043;-76
2022/07/08 05:17:00;;;;;;;4.30;1.32;;;;;;;18.88;70.29;99755.66;1759041;81;21064;-77
2022/07/08 05:19:27;;;;;;;2.05;1.20;;;;;;;18.92;70.66;99757.15;1758970;80;21641;-76
2022/07/08 05:21:54;;;;;;;4.33;1.40;;;;;;;18.98;70.62;99751.04;1758958;81;21246;-77
2022/07/08 05:24:21;;;;;;;2.90;1.35;;;;;;;19.02;70.63;99753.41;1758817;81;20981;-76
2022/07/08 05:26:48;;;;;;;2.47;1.10;;;;;;;19.06;70.12;99752.27;1758879;81;21052;-77
2022/07/08 05:29:15;;;;;;;1.70;1.02;;;;;;;19.12;70.04;99750.99;1758718;80;21100;-77
2022/07/08 05:31:42;;;;;;;3.12;1.32;;;;;;;19.15;69.69;99750.80;1758868;80;21001;-76
2022/07/08 05:34:09;;;;;;;2.25;1.05;;;;;;;19.16;69.48;99752.97;1759045;81;21123;-76
2022/07/08 05:36:36;;;;;;;2.25;1.10;;;;;;;19.15;69.42;99752.13;1759253;80;21060;-76
2022/07/08 05:39:03;;;;;;;2.98;0.98;;;;;;;19.18;69.39;99755.94;1758882;80;21016;-76
2022/07/08 05:41:29;;;;;;;2.30;1.10;;;;;;;19.20;69.64;99754.01;1759259;81;21500;-76
2022/07/08 05:43:56;;;;;;;1.57;1.00;;;;;;;19.21;69.27;99757.03;1758954;81;21084;-77
2022/07/08 05:46:22;;;;;;;3.87;1.20;;;;;;;19.24;69.13;99761.33;1759279;80;21104;-76
2022/07/08 05:48:49;;;;;;;2.87;1.02;;;;;;;19.24;69.08;99770.17;1759049;81;21072;-76
2022/07/08 05:51:15;;;;;;;3.92;1.20;;;;;;;19.26;69.13;99776.74;1759494;80;21000;-76
2022/07/08 05:53:42;;;;;;;2.15;1.32;;;;;;;19.29;69.45;99781.39;1758958;81;21563;-76
2022/07/08 05:56:09;;;;;;;0.93;0.93;;;;;;;19.31;69.37;99784.80;1758934;80;21456;-76
2022/07/08 05:58:36;;;;;;;4.35;1.25;;;;;;;19.35;68.91;99780.60;1759236;81;21127;-76
2022/07/08 06:01:03;;;;;;;1.80;0.90;;;;;;;19.36;68.66;99780.50;1758886;80;21107;-76
2022/07/08 06:03:30;;;;;;;2.08;1.00;;;;;;;19.38;69.01;99783.07;1758979;81;21024;-76
2022/07/08 06:05:57;;;;;;;1.00;0.80;;;;;;;19.39;68.21;99770.13;1758892;80;21115;-76
2022/07/08 06:08:23;;;;;;;0.85;0.80;;;;;;;19.36;67.55;99775.66;1758999;80;21531;-76
2022/07/08 06:10:51;;;;;;;1.80;1.00;;;;;;;19.34;67.18;99777.09;1759213;80;21095;-75
2022/07/08 06:13:17;;;;;;;2.20;0.90;;;;;;;19.33;66.68;99778.52;1752709;81;21130;-76
2022/07/08 06:15:44;;;;;;;2.00;0.80;;;;;;;19.28;66.34;99787.70;1756836;81;21051;-76
2022/07/08 06:18:11;;;;;;;0.72;0.72;;;;;;;19.20;66.66;99786.02;1756887;81;21594;-76
2022/07/08 06:20:38;;;;;;;1.82;0.95;;;;;;;19.14;67.05;99787.75;1756947;81;21625;-76
2022/07/08 06:23:04;;;;;;;3.62;0.90;;;;;;;19.11;67.12;99788.82;1756987;81;21137;-76
2022/07/08 06:25:31;;;;;;;0.70;0.70;;;;;;;19.11;67.15;99790.16;1756737;81;21075;-77
2022/07/08 06:27:58;;;;;;;0.90;0.80;;;;;;;19.11;67.30;99779.94;1756809;81;21150;-76
2022/07/08 06:30:24;;;;;;;1.82;0.80;;;;;;;19.11;67.33;99770.61;1756953;81;21086;-76
2022/07/08 06:32:52;;;;;;;2.33;0.80;;;;;;;19.12;67.58;99760.33;1756818;81;21681;-77
2022/07/08 06:35:19;;;;;;;1.35;0.80;;;;;;;19.12;67.56;99752.33;1756891;81;21330;-77
2022/07/08 06:37:46;;;;;;;0.80;0.80;;;;;;;19.12;67.75;99747.00;1752757;81;21625;-76
2022/07/08 06:40:13;;;;;;;2.33;0.90;;;;;;;19.15;68.20;99744.13;1730874;82;21063;-76
2022/07/08 06:42:39;;;;;;;3.45;0.90;;;;;;;19.13;68.16;99730.02;1731099;82;21178;-76
2022/07/08 06:45:09;;;;;;;1.42;1.10;;;;;;;19.09;68.72;99714.70;1730903;82;21174;-76
2022/07/08 06:47:36;;;;;;;2.15;1.20;;;;;;;19.11;69.13;99710.60;1731095;82;21751;-76
2022/07/08 06:50:05;;;;;;;1.12;1.02;;;;;;;19.06;69.24;99696.72;1730712;81;21127;-76
2022/07/08 06:52:31;;;;;;;4.83;1.60;;;;;;;19.04;69.41;99694.64;1730776;82;21580;-76
2022/07/08 06:54:59;;;;;;;1.75;1.07;;;;;;;19.03;69.58;99687.13;1730732;82;21630;-77
2022/07/08 06:57:25;;;;;;;3.42;1.10;;;;;;;19.06;69.20;99690.05;1730605;82;21075;-76
2022/07/08 06:59:52;;;;;;;1.52;0.90;;;;;;;19.09;69.22;99688.52;1731188;82;21186;-77
2022/07/08 07:02:19;;;;;;;1.85;1.05;;;;;;;19.13;69.61;99699.34;1734272;82;21052;-76
2022/07/08 07:04:45;;;;;;;1.82;1.27;;;;;;;19.22;69.92;99714.74;1745145;81;20992;-76
2022/07/08 07:07:12;;;;;;;1.77;1.20;;;;;;;19.28;69.56;99717.01;1744732;81;21621;-77
2022/07/08 07:09:39;;;;;;;1.65;1.15;;;;;;;19.33;69.30;99722.50;1744861;82;21534;-77
2022/07/08 07:12:07;;;;;;;1.65;1.10;;;;;;;19.34;69.75;99725.06;1769135;81;21553;-76
2022/07/08 07:14:34;;;;;;;3.52;1.40;;;;;;;19.37;68.81;99707.52;1769182;81;21055;-76
2022/07/08 07:17:01;;;;;;;3.52;1.05;;;;;;;19.35;68.29;99683.22;1769359;81;21301;-76
2022/07/08 07:19:28;;;;;;;2.47;0.88;;;;;;;19.31;67.15;99647.90;1769008;81;21118;-76
2022/07/08 07:21:54;;;;;;;0.72;0.72;;;;;;;19.25;66.75;99633.18;1769550;81;21653;-77
2022/07/08 07:24:21;;;;;;;5.15;0.93;;;;;;;19.20;66.89;99638.44;1769063;81;21142;-77
2022/07/08 07:26:47;;;;;;;2.85;1.12;;;;;;;19.16;66.67;99662.30;1769496;81;21001;-76
2022/07/08 07:29:14;;;;;;;1.75;0.80;;;;;;;19.12;66.67;99683.83;1769145;81;21507;-76
2022/07/08 07:31:40;;;;;;;5.03;0.90;;;;;;;19.14;66.88;99701.06;1769208;81;21519;-76
2022/07/08 07:34:07;;;;;;;2.65;1.15;;;;;;;19.17;66.53;99702.69;1769128;81;20972;-76
2022/07/08 07:36:34;;;;;;;7.58;3.50;;;;;;;19.17;66.68;99696.02;1769227;81;21537;-76
2022/07/08 07:39:01;;;;;;;19.30;10.60;;;;;;;19.18;66.84;99701.25;1769221;81;21058;-76
2022/07/08 07:41:28;;;;;;;17.60;8.40;;;;;;;19.23;67.01;99699.58;1769322;81;21000;-77
2022/07/08 07:43:54;;;;;;;17.82;6.30;;;;;;;19.27;67.22;99705.95;1737395;82;21622;-76
2022/07/08 07:46:20;;;;;;;5.10;2.83;;;;;;;19.33;66.96;99715.83;1769172;81;21032;-76
2022/07/08 07:48:49;;;;;;;2.98;1.47;;;;;;;19.37;67.04;99716.02;1777876;80;21507;-77
2022/07/08 07:51:15;;;;;;;1.98;1.07;;;;;;;19.41;66.22;99717.50;1777504;80;21036;-76
2022/07/08 07:53:42;;;;;;;1.32;0.70;;;;;;;19.40;65.95;99711.77;1777887;80;21066;-76
2022/07/08 07:56:08;;;;;;;4.90;0.90;;;;;;;19.41;65.91;99712.16;1777590;80;21066;-76
2022/07/08 07:58:35;;;;;;;1.77;0.80;;;;;;;19.42;65.61;99716.55;1777600;80;21066;-76
2022/07/08 08:01:02;;;;;;;2.55;0.93;;;;;;;19.43;65.69;99724.91;1777692;80;21146;-76
2022/07/08 08:03:29;;;;;;;3.42;0.93;;;;;;;19.45;66.33;99733.20;1771602;80;21122;-77
2022/07/08 08:05:55;;;;;;;4.37;0.90;;;;;;;19.55;66.73;99733.44;1768394;80;21035;-76
2022/07/08 08:08:24;;;;;;;1.50;1.40;;;;;;;19.64;66.52;99738.12;1768128;80;21491;-76
2022/07/08 08:10:52;;;;;;;3.52;0.95;;;;;;;19.70;65.90;99733.33;1768363;81;22015;-77
2022/07/08 08:13:19;;;;;;;1.52;1.20;;;;;;;19.74;65.52;99726.83;1767971;81;21125;-75
2022/07/08 08:15:46;;;;;;;7.62;1.20;;;;;;;19.75;65.08;99717.88;1767855;81;21090;-75
2022/07/08 08:18:14;;;;;;;1.77;1.32;;;;;;;19.80;65.12;99719.73;1768746;79;21024;-76
2022/07/08 08:20:40;;;;;;;1.45;0.90;;;;;;;19.85;64.80;99716.27;1770916;79;21555;-75
2022/07/08 08:23:08;;;;;;;3.25;1.05;;;;;;;19.85;64.38;99714.92;1767903;81;21558;-76
2022/07/08 08:25:35;;;;;;;1.45;1.00;;;;;;;19.88;64.16;99710.72;1768069;81;21557;-75
2022/07/08 08:28:04;;;;;;;0.95;0.70;;;;;;;19.91;63.33;99710.99;1690789;82;21056;-76
2022/07/08 08:30:30;;;;;;;1.52;0.80;;;;;;;19.89;62.24;99720.45;1687316;84;21122;-76
2022/07/08 08:32:58;;;;;;;3.65;1.07;;;;;;;19.88;62.53;99717.88;1749316;81;21035;-76
2022/07/08 08:35:25;;;;;;;3.05;1.30;;;;;;;19.91;62.90;99707.83;1756881;81;21063;-76
2022/07/08 08:37:52;;;;;;;1.90;1.40;;;;;;;19.99;63.00;99709.98;1756997;81;21223;-76
2022/07/08 08:40:21;;;;;;;3.05;1.20;;;;;;;20.05;62.39;99709.52;1756819;81;21110;-76
2022/07/08 08:42:47;;;;;;;4.03;1.20;;;;;;;20.10;62.39;99711.87;1794929;79;21104;-76
2022/07/08 08:45:15;;;;;;;1.42;1.30;;;;;;;20.17;62.27;99707.80;1786151;80;21061;-76
2022/07/08 08:47:41;;;;;;;1.87;1.52;;;;;;;20.24;62.26;99711.75;1794767;79;21046;-77
2022/07/08 08:50:54;;;;;;;2.27;1.52;;;;;;;20.27;61.37;99714.18;1753435;80;21128;-77
2022/07/08 08:52:37;;;;;;;3.45;2.12;;;;;;;20.33;61.52;99713.75;1779618;80;21030;-76
2022/07/08 08:55:06;;;;;;;1.35;1.07;;;;;;;20.40;61.66;99713.66;1795004;79;21635;-77
2022/07/08 08:57:34;;;;;;;1.60;0.88;;;;;;;20.48;60.40;99706.94;1786331;80;21061;-76
2022/07/08 09:00:02;;;;;;;1.55;0.90;;;;;;;20.53;60.06;99708.79;1795140;79;21050;-76
2022/07/08 09:02:29;;;;;;;2.83;1.10;;;;;;;20.57;59.15;99704.91;1786437;79;21121;-76
2022/07/08 09:04:56;;;;;;;1.57;0.80;;;;;;;20.58;58.88;99701.28;1813097;79;21629;-77
2022/07/08 09:07:23;;;;;;;5.80;2.65;;;;;;;20.62;58.60;99697.41;1813746;79;21681;-75
2022/07/08 09:09:49;;;;;;;3.40;1.67;;;;;;;20.63;58.48;99701.83;1766823;81;21122;-76
2022/07/08 09:12:22;;;;;;;0.80;0.80;;;;;;;20.66;58.81;99697.60;1747857;82;20992;-76
2022/07/08 09:14:50;;;;;;;1.85;0.70;;;;;;;20.70;58.10;99693.72;1766819;80;21123;-77
2022/07/08 09:17:17;;;;;;;3.45;1.47;;;;;;;20.72;58.46;99701.14;1767068;81;20960;-76
2022/07/08 09:19:49;;;;;;;1.80;1.15;;;;;;;20.78;58.76;99698.02;1736435;82;21030;-76
2022/07/08 09:22:16;;;;;;;2.98;1.10;;;;;;;20.86;58.54;99705.95;1772419;80;21536;-77
2022/07/08 09:24:43;;;;;;;0.95;0.80;;;;;;;20.89;58.30;99697.70;1752577;81;21060;-76
2022/07/08 09:27:11;;;;;;;0.90;0.75;;;;;;;20.96;58.16;99702.95;1766890;80;21142;-77
2022/07/08 09:29:59;;;;;;;5.65;0.70;;;;;;;21.00;57.86;99697.76;1766658;81;21008;-76
2022/07/08 09:32:25;;;;;;;4.50;1.00;;;;;;;21.05;57.50;99692.91;1736516;82;20975;-76
2022/07/08 09:34:52;;;;;;;3.37;0.70;;;;;;;21.15;58.26;99695.25;1772708;80;21103;-77
2022/07/08 09:37:20;;;;;;;2.25;1.10;;;;;;;21.30;58.91;99695.91;1753258;81;21063;-76
2022/07/08 09:39:46;;;;;;;1.05;0.88;;;;;;;21.47;58.36;99689.29;1767070;80;21124;-76
2022/07/08 09:42:14;;;;;;;3.02;0.80;;;;;;;21.65;58.78;99691.50;1747632;82;21063;-76
2022/07/08 09:44:41;;;;;;;2.50;0.80;;;;;;;21.79;56.96;99693.12;1766791;81;21035;-77
2022/07/08 09:47:14;;;;;;;1.95;0.80;;;;;;;21.78;56.47;99681.53;1766961;81;21095;-76
2022/07/08 09:49:45;;;;;;;2.87;0.70;;;;;;;21.82;56.25;99685.69;1736739;82;21058;-76
2022/07/08 09:52:22;;;;;;;1.50;0.70;;;;;;;21.86;56.80;99687.14;1772810;80;21865;-76
2022/07/08 09:55:02;;;;;;;1.32;0.75;;;;;;;21.96;56.68;99690.45;1752954;81;21050;-76
2022/07/08 09:57:29;;;;;;;1.20;0.80;;;;;;;22.03;55.50;99684.95;1767152;80;21047;-77
2022/07/08 09:59:56;;;;;;;2.47;0.70;;;;;;;22.07;54.48;99686.40;1747616;82;21134;-76
2022/07/08 10:02:24;;;;;;;0.57;0.55;;;;;;;22.15;55.42;99692.00;1767053;81;21094;-76
2022/07/08 10:04:50;;;;;;;1.12;0.60;;;;;;;22.25;55.14;99690.28;1768905;81;21488;-77
2022/07/08 10:07:17;;;;;;;1.77;0.88;;;;;;;22.31;54.21;99676.05;1769402;81;21071;-77
2022/07/08 10:09:43;;;;;;;0.80;0.80;;;;;;;22.34;54.45;99684.72;1737199;82;21658;-77
2022/07/08 10:12:13;;;;;;;0.98;0.80;;;;;;;22.47;54.78;99687.23;1769248;81;21079;-77
2022/07/08 10:14:43;;;;;;;1.20;0.70;;;;;;;22.61;54.87;99680.73;1766561;81;21091;-77
2022/07/08 10:17:10;;;;;;;1.70;1.00;;;;;;;22.75;54.92;99689.85;1769045;81;21142;-76
2022/07/08 10:19:38;;;;;;;2.45;0.90;;;;;;;22.90;54.53;99686.39;1769286;81;21036;-77
2022/07/08 10:22:06;;;;;;;1.95;0.90;;;;;;;23.07;54.97;99682.82;1769346;81;21020;-76
2022/07/08 10:24:37;;;;;;;1.55;0.80;;;;;;;23.22;54.29;99677.49;1769265;81;22045;-76
2022/07/08 10:27:04;;;;;;;0.98;0.80;;;;;;;23.31;53.38;99686.09;1745467;81;21043;-75
2022/07/08 10:29:36;;;;;;;0.75;0.60;;;;;;;23.44;53.20;99685.06;1769224;81;22315;-76
2022/07/08 10:32:03;;;;;;;1.77;0.60;;;;;;;23.58;53.00;99682.02;1769301;81;20995;-76
2022/07/08 10:34:32;;;;;;;1.60;0.70;;;;;;;23.66;52.59;99676.84;1769237;81;21031;-76
2022/07/08 10:37:03;;;;;;;1.55;0.80;;;;;;;23.70;52.29;99672.92;1769203;81;21466;-77
2022/07/08 10:39:38;;;;;;;1.47;0.57;;;;;;;23.79;51.82;99674.41;1771702;80;21043;-77
2022/07/08 10:42:08;;;;;;;2.77;0.78;;;;;;;23.88;50.91;99683.06;1775247;80;21141;-77
2022/07/08 10:44:47;;;;;;;2.30;0.70;;;;;;;23.91;51.65;99681.45;1774886;80;21538;-76
2022/07/08 10:47:28;;;;;;;0.82;0.60;;;;;;;23.82;50.68;99687.62;1775192;80;21062;-76
2022/07/08 10:50:02;;;;;;;5.42;0.70;;;;;;;23.67;50.38;99675.87;1774815;80;21032;-77
2022/07/08 10:52:38;;;;;;;2.47;0.70;;;;;;;23.65;50.15;99686.38;1774781;80;21098;-77
2022/07/08 10:55:13;;;;;;;3.67;0.82;;;;;;;23.66;50.83;99682.21;1774959;80;21907;-84
2022/07/08 10:57:57;;;;;;;1.27;0.57;;;;;;;23.76;51.16;99681.42;1774907;80;21476;-83
2022/07/08 11:00:23;;;;;;;0.78;0.60;;;;;;;23.86;50.32;99668.92;1774879;80;21109;-85
2022/07/08 11:02:51;;;;;;;0.93;0.60;;;;;;;23.96;50.23;99686.44;1774964;80;21118;-85
2022/07/08 11:05:39;;;;;;;2.67;0.78;;;;;;;23.98;50.17;99681.27;1774799;80;21496;-81
2022/07/08 11:08:25;;;;;;;5.40;1.25;;;;;;;23.99;50.15;99684.32;1774967;80;21313;-75
2022/07/08 11:10:52;;;;;;;3.60;1.00;;;;;;;24.03;50.34;99680.36;1774973;80;20984;-81
2022/07/08 11:13:20;;;;;;;0.93;0.70;;;;;;;24.14;50.80;99667.80;1775031;80;21499;-81
2022/07/08 11:15:47;;;;;;;1.42;0.60;;;;;;;24.23;50.23;99665.66;1775294;80;21008;-81
2022/07/08 11:18:21;;;;;;;3.10;0.65;;;;;;;24.26;50.87;99668.08;1774946;80;22035;-81
2022/07/08 11:20:48;;;;;;;0.90;0.80;;;;;;;24.36;50.02;99668.95;1775027;80;21136;-83
2022/07/08 11:23:16;;;;;;;0.75;0.60;;;;;;;24.42;50.28;99671.06;1775130;80;21031;-81
2022/07/08 11:25:43;;;;;;;0.60;0.57;;;;;;;24.59;51.42;99670.07;1749104;80;21055;-80
2022/07/08 11:28:21;;;;;;;0.93;0.60;;;;;;;24.78;51.44;99662.03;1775418;80;21048;-84
2022/07/08 11:30:48;;;;;;;2.05;0.50;;;;;;;24.96;51.50;99662.66;1774997;80;21039;-82
2022/07/08 11:33:16;;;;;;;3.05;0.55;;;;;;;25.10;50.02;99675.70;1775134;80;21144;-81
2022/07/08 11:35:42;;;;;;;0.40;0.40;;;;;;;25.15;49.54;99670.73;1775021;80;21067;-82
2022/07/08 11:38:09;;;;;;;1.20;0.50;;;;;;;25.17;48.70;99664.70;1775396;80;21352;-82